Country
Station

 

Weather  for  Rotterdam Airport Zestienhoven  -  Netherlands    Netherlands

  
23 °C (73 °F)
    
 
 

Current METAR for Rotterdam Airport Zestienhoven is :

EHRD 171055Z AUTO 25010KT 200V290 9999 NCD 23/15 Q1015 NOSIG

 

This is a report for Rotterdam Airport Zestienhoven - Netherlands.
 
The report was made 15 minutes ago, at 10:55 UTC .
The wind was blowing at a speed of 5.1 meters per second (11.5 miles per hour) from west/southwest (250°), varying between south/southwest (200°) and west/northwest (290°).
 
The temperature was 23 °C (73 °F), with a dew-point at 15 °C (59 °F).
The temperature felt like 24 °C (76 °F).
 
The atmospheric pressure was 1015 hPa (29.97 inHg).
The relative humidity was 60.7%.
 
The overall visibility was greater than 10 kilometers (6.2 miles).
 

 
 
 
 

Country :   A   B   C   D   E   F   G   H   I   J   K   L   M   N   O   P   Q   R   S   T   U   V   W   Y   Z

 

Site Info  |  Disclaimer  |  Credits  |  Privacy
Contact us  |  Add to favorites
© 2013-2018 METARs - All rights reserved